Time;durP1;ratioP1;P1;durP2;ratioP2;P2;SDS_P1;SDS_P2;PMS_P1;PMS_P2;Temp;Humidity;BMP_temperature;BMP_pressure;BME280_temperature;BME280_humidity;BME280_pressure;Samples;Min_cycle;Max_cycle;Signal;HPM_P1;HPM_P2
2023/04/20 00:00:31;;;;;;;3.10;1.60;;;;;;;;;;10048056;23;20410;-84
2023/04/20 00:05:36;;;;;;;2.92;1.50;;;;;;;;;;10042914;29;20408;-87
2023/04/20 00:10:40;;;;;;;2.85;1.30;;;;;;;;;;10016080;29;20050;-84
2023/04/20 00:15:43;;;;;;;2.05;1.35;;;;;;;;;;10010865;29;20469;-86
2023/04/20 00:20:48;;;;;;;3.03;1.33;;;;;;;;;;10012269;29;20508;-83
2023/04/20 00:25:53;;;;;;;1.50;1.23;;;;;;;;;;10011742;29;20262;-84
2023/04/20 00:30:56;;;;;;;2.13;1.63;;;;;;;;;;10007911;29;20045;-85
2023/04/20 00:36:03;;;;;;;3.92;1.40;;;;;;;;;;10009527;29;20073;-85
2023/04/20 00:41:06;;;;;;;2.22;1.40;;;;;;;;;;10013720;29;20069;-83
2023/04/20 00:46:10;;;;;;;1.75;1.42;;;;;;;;;;10021467;29;20099;-85
2023/04/20 00:51:15;;;;;;;1.73;1.40;;;;;;;;;;9993999;29;20054;-84
2023/04/20 00:56:20;;;;;;;2.30;1.48;;;;;;;;;;9996288;29;20049;-88
2023/04/20 01:01:24;;;;;;;2.25;1.60;;;;;;;;;;10012226;29;20034;-84
2023/04/20 01:06:29;;;;;;;2.20;1.20;;;;;;;;;;9994230;29;20046;-84
2023/04/20 01:11:34;;;;;;;2.22;1.60;;;;;;;;;;10007197;29;20045;-83
2023/04/20 01:16:37;;;;;;;2.20;1.67;;;;;;;;;;9993510;29;20526;-88
2023/04/20 01:21:42;;;;;;;1.98;1.52;;;;;;;;;;9995972;29;20416;-84
2023/04/20 01:26:47;;;;;;;2.63;1.73;;;;;;;;;;9990143;29;20078;-82
2023/04/20 01:31:53;;;;;;;2.20;1.55;;;;;;;;;;9984691;29;20038;-82
2023/04/20 01:36:57;;;;;;;3.03;1.63;;;;;;;;;;9989679;29;20057;-87
2023/04/20 01:42:02;;;;;;;2.42;1.85;;;;;;;;;;10006775;29;20138;-88
2023/04/20 01:47:06;;;;;;;2.67;1.73;;;;;;;;;;9991621;29;20080;-84
2023/04/20 01:52:13;;;;;;;3.85;1.52;;;;;;;;;;10004492;29;20046;-85
2023/04/20 01:57:21;;;;;;;3.30;1.90;;;;;;;;;;10000583;29;20053;-87
2023/04/20 02:02:24;;;;;;;2.25;1.55;;;;;;;;;;9997680;29;20046;-84
2023/04/20 02:07:29;;;;;;;2.38;1.70;;;;;;;;;;10008449;29;20054;-85
2023/04/20 02:12:39;;;;;;;2.05;1.30;;;;;;;;;;9989195;29;20050;-85
2023/04/20 02:17:42;;;;;;;3.67;1.90;;;;;;;;;;9983697;29;20141;-85
2023/04/20 02:22:47;;;;;;;2.72;1.38;;;;;;;;;;10002274;29;20080;-85
2023/04/20 02:27:51;;;;;;;1.63;1.48;;;;;;;;;;10007914;29;20132;-87
2023/04/20 02:32:55;;;;;;;2.47;1.40;;;;;;;;;;9985977;29;20054;-85
2023/04/20 02:37:58;;;;;;;1.92;1.30;;;;;;;;;;10003761;29;20098;-87
2023/04/20 02:43:03;;;;;;;1.48;1.25;;;;;;;;;;10011955;29;20238;-82
2023/04/20 02:48:08;;;;;;;1.20;1.10;;;;;;;;;;9996524;29;20046;-81
2023/04/20 02:53:12;;;;;;;1.55;1.30;;;;;;;;;;9988440;29;20092;-86
2023/04/20 02:58:20;;;;;;;1.35;1.20;;;;;;;;;;10016347;29;20049;-87
2023/04/20 03:03:42;;;;;;;4.25;1.70;;;;;;;;;;10010613;29;20463;-83
2023/04/20 03:08:47;;;;;;;2.47;1.80;;;;;;;;;;9988781;29;20038;-84
2023/04/20 03:14:25;;;;;;;2.38;1.70;;;;;;;;;;9994056;29;20054;-83
2023/04/20 03:19:29;;;;;;;2.85;1.83;;;;;;;;;;9992820;29;20042;-81
2023/04/20 03:24:34;;;;;;;5.13;2.17;;;;;;;;;;9990445;29;20046;-82
2023/04/20 03:29:49;;;;;;;2.50;1.95;;;;;;;;;;9983866;29;20134;-82
2023/04/20 03:34:53;;;;;;;2.50;1.52;;;;;;;;;;10001228;29;20110;-82
2023/04/20 03:39:57;;;;;;;2.58;1.52;;;;;;;;;;10004200;29;20046;-82
2023/04/20 03:45:02;;;;;;;3.40;1.30;;;;;;;;;;9995664;29;20070;-86
2023/04/20 03:50:08;;;;;;;1.52;1.42;;;;;;;;;;9996319;29;20042;-87
2023/04/20 03:55:14;;;;;;;3.10;1.52;;;;;;;;;;9996393;29;20054;-85
2023/04/20 04:00:24;;;;;;;1.90;1.38;;;;;;;;;;10011526;29;20049;-84
2023/04/20 04:05:36;;;;;;;2.55;1.65;;;;;;;;;;9995820;29;20050;-87
2023/04/20 04:10:39;;;;;;;1.92;1.40;;;;;;;;;;10015498;29;20037;-84
2023/04/20 04:15:44;;;;;;;2.55;1.80;;;;;;;;;;9987700;29;20050;-84
2023/04/20 04:20:50;;;;;;;2.13;1.48;;;;;;;;;;10005237;29;20042;-84
2023/04/20 04:25:56;;;;;;;1.58;1.42;;;;;;;;;;10008796;29;20041;-85
2023/04/20 04:31:04;;;;;;;2.85;1.50;;;;;;;;;;10002046;29;20048;-86
2023/04/20 04:36:10;;;;;;;1.98;1.60;;;;;;;;;;9998167;29;20217;-86
2023/04/20 04:41:14;;;;;;;2.35;1.63;;;;;;;;;;9994112;29;20054;-86
2023/04/20 04:46:21;;;;;;;1.90;1.40;;;;;;;;;;9997244;29;20128;-88
2023/04/20 04:51:25;;;;;;;1.50;1.40;;;;;;;;;;10018452;29;20074;-85
2023/04/20 04:56:31;;;;;;;;;;;;;;;;;;10008667;29;20508;-86
2023/04/20 05:01:36;;;;;;;1.90;1.25;;;;;;;;;;10012828;29;19983;-89
2023/04/20 05:06:56;;;;;;;1.88;1.35;;;;;;;;;;10017429;29;20056;-94
2023/04/20 05:12:03;;;;;;;1.70;1.35;;;;;;;;;;10000061;29;20046;-89
2023/04/20 05:17:08;;;;;;;3.10;2.10;;;;;;;;;;10009806;29;20080;-90
2023/04/20 05:22:14;;;;;;;2.67;1.90;;;;;;;;;;10022639;29;20049;-88
2023/04/20 05:27:18;;;;;;;2.70;1.48;;;;;;;;;;10021528;29;20061;-88
2023/04/20 05:32:26;;;;;;;2.22;1.77;;;;;;;;;;9997916;29;20050;-89
2023/04/20 05:37:30;;;;;;;1.80;1.40;;;;;;;;;;10011225;29;20050;-89
2023/04/20 05:42:34;;;;;;;2.47;1.77;;;;;;;;;;9997406;29;20115;-89
2023/04/20 05:47:42;;;;;;;1.60;1.50;;;;;;;;;;10012865;29;20046;-90
2023/04/20 05:52:56;;;;;;;1.88;1.60;;;;;;;;;;9999161;29;20101;-88
2023/04/20 05:58:03;;;;;;;1.90;1.70;;;;;;;;;;9997809;29;20045;-88
2023/04/20 06:03:09;;;;;;;2.63;1.80;;;;;;;;;;10028450;29;20106;-88
2023/04/20 06:08:13;;;;;;;;;;;;;;;;;;9996153;29;20049;-88
2023/04/20 06:13:20;;;;;;;2.38;2.05;;;;;;;;;;10001543;29;19931;-90
2023/04/20 06:18:27;;;;;;;1.70;1.60;;;;;;;;;;10019123;29;20054;-88
2023/04/20 06:23:31;;;;;;;1.98;1.63;;;;;;;;;;9993040;29;20225;-89
2023/04/20 06:28:35;;;;;;;3.08;2.03;;;;;;;;;;9999639;29;20584;-88
2023/04/20 06:33:40;;;;;;;2.08;1.60;;;;;;;;;;9995239;29;20133;-88
2023/04/20 06:38:50;;;;;;;1.60;1.50;;;;;;;;;;10008473;29;20267;-88
2023/04/20 06:43:57;;;;;;;1.10;1.00;;;;;;;;;;9999823;29;20662;-88
2023/04/20 06:49:08;;;;;;;1.45;1.20;;;;;;;;;;9991927;29;20054;-88
2023/04/20 06:54:14;;;;;;;1.83;1.63;;;;;;;;;;10004851;29;20050;-88
2023/04/20 06:59:20;;;;;;;1.60;1.40;;;;;;;;;;9991191;29;20732;-89
2023/04/20 07:04:27;;;;;;;1.70;1.60;;;;;;;;;;10014010;29;20049;-89
2023/04/20 07:09:32;;;;;;;1.73;1.45;;;;;;;;;;9994127;29;20088;-89
2023/04/20 07:14:36;;;;;;;2.22;1.80;;;;;;;;;;10000632;29;20056;-88
2023/04/20 07:19:42;;;;;;;1.92;1.50;;;;;;;;;;10007491;29;20091;-88
2023/04/20 07:24:46;;;;;;;1.70;1.38;;;;;;;;;;10015336;29;20076;-90
2023/04/20 07:29:49;;;;;;;2.63;1.50;;;;;;;;;;10013108;29;20086;-88
2023/04/20 07:34:55;;;;;;;1.73;1.58;;;;;;;;;;10024378;29;20049;-88
2023/04/20 07:40:04;;;;;;;1.48;1.20;;;;;;;;;;10016582;29;20548;-89
2023/04/20 07:45:13;;;;;;;2.42;1.20;;;;;;;;;;10008997;29;20476;-90
2023/04/20 07:50:23;;;;;;;1.20;0.90;;;;;;;;;;10001142;29;20136;-89
2023/04/20 07:55:26;;;;;;;1.60;1.50;;;;;;;;;;10001607;29;20172;-91
2023/04/20 08:00:37;;;;;;;0.80;0.80;;;;;;;;;;10001078;29;20053;-92
2023/04/20 08:05:42;;;;;;;1.17;1.00;;;;;;;;;;10000147;29;20149;-88
2023/04/20 08:10:46;;;;;;;1.10;0.98;;;;;;;;;;9993434;29;20564;-91
2023/04/20 08:15:54;;;;;;;0.80;0.80;;;;;;;;;;10031705;29;20060;-88
2023/04/20 08:20:59;;;;;;;1.08;0.90;;;;;;;;;;10010150;29;20393;-89
2023/04/20 08:26:04;;;;;;;0.82;0.82;;;;;;;;;;10006544;29;20559;-88
2023/04/20 08:31:12;;;;;;;1.27;1.00;;;;;;;;;;10011151;29;20734;-89
2023/04/20 08:36:21;;;;;;;1.30;1.20;;;;;;;;;;10006464;29;20419;-89
2023/04/20 08:41:25;;;;;;;1.20;1.10;;;;;;;;;;9998147;29;20054;-88
2023/04/20 08:46:37;;;;;;;1.40;1.30;;;;;;;;;;10013879;29;20121;-89
2023/04/20 08:51:44;;;;;;;1.92;1.40;;;;;;;;;;10007909;29;20076;-90
2023/04/20 08:56:48;;;;;;;1.40;1.30;;;;;;;;;;10010568;29;20049;-88
2023/04/20 09:02:07;;;;;;;2.15;1.33;;;;;;;;;;9997653;29;20641;-88
2023/04/20 09:07:21;;;;;;;1.67;1.42;;;;;;;;;;10013643;29;20045;-89
2023/04/20 09:12:27;;;;;;;1.50;1.40;;;;;;;;;;10010209;29;20054;-88
2023/04/20 09:17:36;;;;;;;1.30;1.15;;;;;;;;;;10023183;29;20164;-89
2023/04/20 09:22:42;;;;;;;2.50;1.63;;;;;;;;;;9993276;29;20048;-89
2023/04/20 09:27:55;;;;;;;;;;;;;;;;;;9986908;29;20665;-88
2023/04/20 09:33:02;;;;;;;2.70;1.52;;;;;;;;;;9993719;29;20626;-88
2023/04/20 09:38:16;;;;;;;1.85;1.35;;;;;;;;;;10001450;29;20097;-86
2023/04/20 09:43:22;;;;;;;2.42;1.70;;;;;;;;;;10011244;29;20045;-85
2023/04/20 09:48:26;;;;;;;2.35;1.88;;;;;;;;;;9986483;29;20054;-86
2023/04/20 09:53:34;;;;;;;2.30;1.70;;;;;;;;;;10002633;29;20074;-85
2023/04/20 09:58:38;;;;;;;1.70;1.50;;;;;;;;;;10001201;29;20053;-84
2023/04/20 10:03:43;;;;;;;1.50;1.40;;;;;;;;;;9982059;29;20098;-86
2023/04/20 10:08:49;;;;;;;2.10;1.60;;;;;;;;;;9994861;29;20053;-85
2023/04/20 10:13:54;;;;;;;2.15;1.95;;;;;;;;;;9988248;29;20046;-88
2023/04/20 10:19:00;;;;;;;2.85;2.28;;;;;;;;;;9993573;29;20050;-89
2023/04/20 10:24:09;;;;;;;2.25;1.80;;;;;;;;;;10008608;29;20050;-88
2023/04/20 10:29:27;;;;;;;2.20;2.00;;;;;;;;;;10013663;29;20141;-87
2023/04/20 10:34:38;;;;;;;1.67;1.50;;;;;;;;;;9995355;29;20049;-87
2023/04/20 10:39:47;;;;;;;2.00;1.80;;;;;;;;;;10006950;29;20050;-87
2023/04/20 10:44:51;;;;;;;2.25;1.80;;;;;;;;;;9998676;29;20516;-87
2023/04/20 10:50:15;;;;;;;3.33;2.47;;;;;;;;;;10002636;29;20568;-87
2023/04/20 10:55:24;;;;;;;2.58;1.98;;;;;;;;;;10006423;29;20042;-87
2023/04/20 11:00:29;;;;;;;3.78;2.80;;;;;;;;;;9998867;29;20829;-86
2023/04/20 11:05:33;;;;;;;3.53;2.45;;;;;;;;;;9988554;29;20046;-88
2023/04/20 11:10:42;;;;;;;3.33;2.45;;;;;;;;;;9983938;29;20050;-89
2023/04/20 11:15:46;;;;;;;2.70;1.92;;;;;;;;;;9996600;29;20053;-87
2023/04/20 11:20:51;;;;;;;4.45;2.67;;;;;;;;;;10006808;29;20078;-88
2023/04/20 11:25:57;;;;;;;4.25;2.38;;;;;;;;;;9989769;29;20153;-86
2023/04/20 11:31:01;;;;;;;2.73;2.43;;;;;;;;;;10007750;29;20058;-87
2023/04/20 11:36:05;;;;;;;3.30;1.90;;;;;;;;;;9998213;29;20314;-86
2023/04/20 11:41:16;;;;;;;3.42;2.15;;;;;;;;;;9989195;29;20519;-88
2023/04/20 11:46:22;;;;;;;2.60;1.98;;;;;;;;;;10020898;29;20453;-86
2023/04/20 11:51:27;;;;;;;2.75;1.77;;;;;;;;;;10020536;29;20054;-86
2023/04/20 11:56:32;;;;;;;2.95;2.35;;;;;;;;;;10018645;29;20045;-88
2023/04/20 12:01:36;;;;;;;3.13;2.58;;;;;;;;;;10016481;29;20126;-87
2023/04/20 12:06:40;;;;;;;3.45;2.30;;;;;;;;;;9997965;29;20046;-84
2023/04/20 12:11:45;;;;;;;3.08;2.55;;;;;;;;;;10006401;29;20082;-84
2023/04/20 12:16:48;;;;;;;3.60;2.28;;;;;;;;;;10008067;29;20174;-84
2023/04/20 12:21:55;;;;;;;2.47;2.28;;;;;;;;;;9989998;29;20058;-84
2023/04/20 12:27:02;;;;;;;2.60;2.30;;;;;;;;;;10005861;29;20129;-85
2023/04/20 12:32:06;;;;;;;;;;;;;;;;;;9991010;29;20042;-85
2023/04/20 12:37:09;;;;;;;1.98;1.77;;;;;;;;;;10018187;29;20407;-81
2023/04/20 12:42:14;;;;;;;4.43;2.72;;;;;;;;;;9990870;29;20424;-81
2023/04/20 12:47:18;;;;;;;3.63;2.67;;;;;;;;;;9989551;29;20189;-82
2023/04/20 12:52:25;;;;;;;3.30;2.63;;;;;;;;;;10006538;29;20042;-84
2023/04/20 12:57:30;;;;;;;5.47;2.90;;;;;;;;;;9989687;29;20050;-85
2023/04/20 13:16:50;;;;;;;2.15;1.83;;;;;;;;;;9889765;29;20050;-84
2023/04/20 13:21:56;;;;;;;3.67;2.50;;;;;;;;;;9995076;29;20457;-85
2023/04/20 13:26:59;;;;;;;3.55;2.90;;;;;;;;;;10015526;29;20157;-85
2023/04/20 13:32:05;;;;;;;2.67;2.33;;;;;;;;;;10005283;29;20117;-84
2023/04/20 13:37:09;;;;;;;3.13;2.30;;;;;;;;;;10003763;29;20070;-84
2023/04/20 13:42:12;;;;;;;3.60;2.58;;;;;;;;;;9988929;29;20046;-84
2023/04/20 13:47:18;;;;;;;3.10;2.53;;;;;;;;;;10003427;29;20056;-84
2023/04/20 13:52:24;;;;;;;4.30;3.08;;;;;;;;;;10002479;29;20061;-84
2023/04/20 13:57:30;;;;;;;3.92;2.67;;;;;;;;;;10009221;29;20077;-84
2023/04/20 14:02:35;;;;;;;3.38;1.83;;;;;;;;;;9972757;29;20054;-84
2023/04/20 14:07:38;;;;;;;3.40;2.70;;;;;;;;;;10000728;29;20130;-84
2023/04/20 14:12:42;;;;;;;2.85;2.47;;;;;;;;;;10003085;29;20057;-87
2023/04/20 14:17:48;;;;;;;1.88;1.63;;;;;;;;;;10010354;29;20045;-86
2023/04/20 14:22:52;;;;;;;3.38;1.98;;;;;;;;;;10011717;29;20050;-85
2023/04/20 14:27:56;;;;;;;3.30;2.75;;;;;;;;;;9997897;29;20050;-86
2023/04/20 14:33:02;;;;;;;3.10;2.45;;;;;;;;;;10028625;29;20076;-85
2023/04/20 14:38:06;;;;;;;2.13;1.80;;;;;;;;;;9985485;29;20050;-85
2023/04/20 14:43:09;;;;;;;3.42;2.05;;;;;;;;;;10012189;29;20416;-86
2023/04/20 14:48:14;;;;;;;2.97;2.35;;;;;;;;;;10003105;29;20467;-89
2023/04/20 14:53:21;;;;;;;2.20;2.00;;;;;;;;;;9994173;29;20060;-86
2023/04/20 14:58:27;;;;;;;3.55;2.40;;;;;;;;;;10020442;29;20056;-86
2023/04/20 15:03:32;;;;;;;2.63;2.22;;;;;;;;;;10021495;29;20078;-86
2023/04/20 15:08:35;;;;;;;2.22;1.55;;;;;;;;;;10002867;29;20080;-83
2023/04/20 15:13:40;;;;;;;3.03;1.60;;;;;;;;;;9999532;29;20381;-83
2023/04/20 15:25:39;;;;;;;;;;;;;;;;;;9928248;29;20051;-85
2023/04/20 15:30:43;;;;;;;3.28;2.40;;;;;;;;;;9934080;29;20028;-85
2023/04/20 15:35:47;;;;;;;1.85;1.55;;;;;;;;;;9932825;29;20070;-86
2023/04/20 15:40:58;;;;;;;1.75;1.38;;;;;;;;;;9930143;29;20047;-86
2023/04/20 15:46:02;;;;;;;3.95;1.70;;;;;;;;;;9927582;29;20133;-86
2023/04/20 15:51:11;;;;;;;2.28;1.55;;;;;;;;;;9923095;29;20050;-84
2023/04/20 15:56:21;;;;;;;1.52;1.40;;;;;;;;;;9916802;29;20058;-84
2023/04/20 16:01:26;;;;;;;2.45;2.13;;;;;;;;;;9919644;29;20055;-84
2023/04/20 16:06:30;;;;;;;2.57;1.87;;;;;;;;;;9915895;29;20073;-84
2023/04/20 16:11:36;;;;;;;2.97;2.20;;;;;;;;;;9922151;29;20051;-84
2023/04/20 16:16:39;;;;;;;4.43;3.17;;;;;;;;;;9923157;29;20046;-87
2023/04/20 16:21:43;;;;;;;2.20;1.85;;;;;;;;;;9917730;29;20055;-84
2023/04/20 16:26:48;;;;;;;4.60;2.90;;;;;;;;;;9955678;29;20698;-84
2023/04/20 16:31:51;;;;;;;2.92;2.03;;;;;;;;;;10010474;29;20074;-83
2023/04/20 16:36:55;;;;;;;2.85;2.28;;;;;;;;;;10011548;29;20102;-81
2023/04/20 16:42:02;;;;;;;;;;;;;;;;;;10011164;29;20045;-82
2023/04/20 16:47:06;;;;;;;3.47;2.40;;;;;;;;;;10012373;29;19929;-82
2023/04/20 16:52:09;;;;;;;3.22;2.50;;;;;;;;;;10010846;29;20049;-81
2023/04/20 16:57:14;;;;;;;3.00;2.58;;;;;;;;;;9997402;29;21024;-81
2023/04/20 17:02:18;;;;;;;3.53;2.25;;;;;;;;;;10006084;29;20062;-81
2023/04/20 17:07:22;;;;;;;3.15;2.05;;;;;;;;;;9989608;29;20049;-82
2023/04/20 17:12:28;;;;;;;3.03;2.35;;;;;;;;;;10002807;29;20061;-82
2023/04/20 17:17:32;;;;;;;2.53;2.33;;;;;;;;;;10007065;29;20109;-82
2023/04/20 17:22:36;;;;;;;3.28;2.47;;;;;;;;;;9984335;29;20049;-81
2023/04/20 17:27:42;;;;;;;2.90;2.60;;;;;;;;;;10000099;29;20053;-81
2023/04/20 17:32:45;;;;;;;3.27;2.80;;;;;;;;;;10000789;29;20737;-82
2023/04/20 17:37:49;;;;;;;3.38;2.97;;;;;;;;;;9989640;29;20038;-81
2023/04/20 17:42:54;;;;;;;3.00;2.60;;;;;;;;;;9983823;29;20041;-82
2023/04/20 17:47:59;;;;;;;4.78;3.00;;;;;;;;;;9984903;29;20074;-81
2023/04/20 17:53:05;;;;;;;3.97;3.10;;;;;;;;;;10005638;29;20117;-82
2023/04/20 17:58:11;;;;;;;3.75;2.75;;;;;;;;;;10005349;29;20042;-81
2023/04/20 18:03:15;;;;;;;2.72;2.53;;;;;;;;;;10085994;24;20045;-83
2023/04/20 18:08:19;;;;;;;3.47;2.80;;;;;;;;;;10047625;29;20059;-83
2023/04/20 18:13:27;;;;;;;3.35;2.92;;;;;;;;;;10045878;29;20076;-82
2023/04/20 18:18:35;;;;;;;2.72;2.33;;;;;;;;;;10046433;29;20045;-82
2023/04/20 18:23:39;;;;;;;3.20;2.90;;;;;;;;;;10032311;29;20095;-83
2023/04/20 18:28:44;;;;;;;5.97;2.88;;;;;;;;;;10048598;29;20109;-82
2023/04/20 18:33:48;;;;;;;3.20;2.58;;;;;;;;;;10034876;29;20049;-82
2023/04/20 18:38:56;;;;;;;4.18;3.40;;;;;;;;;;10034421;29;20038;-82
2023/04/20 18:44:01;;;;;;;3.95;3.20;;;;;;;;;;10039573;29;20580;-84
2023/04/20 18:49:05;;;;;;;3.97;2.70;;;;;;;;;;10054404;29;20072;-84
2023/04/20 18:54:10;;;;;;;6.22;3.17;;;;;;;;;;10035134;29;20049;-83
2023/04/20 18:59:15;;;;;;;3.45;2.90;;;;;;;;;;10047914;29;20084;-84
2023/04/20 19:04:19;;;;;;;4.53;4.13;;;;;;;;;;10053446;29;20060;-82
2023/04/20 19:09:34;;;;;;;4.40;3.63;;;;;;;;;;10022633;29;20049;-82
2023/04/20 19:14:39;;;;;;;3.90;3.13;;;;;;;;;;10023234;29;20810;-83
2023/04/20 19:19:42;;;;;;;4.32;3.45;;;;;;;;;;10034154;29;20159;-83
2023/04/20 19:24:47;;;;;;;3.63;3.15;;;;;;;;;;10024016;29;20045;-83
2023/04/20 19:29:53;;;;;;;3.83;3.13;;;;;;;;;;10027952;29;20055;-84
2023/04/20 19:34:58;;;;;;;4.07;3.25;;;;;;;;;;10043921;29;20049;-85
2023/04/20 19:40:04;;;;;;;3.70;3.13;;;;;;;;;;10048897;29;20042;-84
2023/04/20 19:45:09;;;;;;;3.37;3.07;;;;;;;;;;10027072;29;20045;-84
2023/04/20 19:50:16;;;;;;;4.10;3.63;;;;;;;;;;10046407;29;20057;-85
2023/04/20 19:55:27;;;;;;;4.70;3.78;;;;;;;;;;10030340;29;20065;-85
2023/04/20 20:00:32;;;;;;;5.13;4.22;;;;;;;;;;10059208;29;20068;-84
2023/04/20 20:05:35;;;;;;;4.93;3.30;;;;;;;;;;10039830;29;20054;-84
2023/04/20 20:10:40;;;;;;;3.88;3.10;;;;;;;;;;10036129;29;20053;-82
2023/04/20 20:15:44;;;;;;;3.45;2.63;;;;;;;;;;10050042;29;20140;-83
2023/04/20 20:20:50;;;;;;;3.67;2.38;;;;;;;;;;10038319;29;20046;-83
2023/04/20 20:25:53;;;;;;;4.18;2.92;;;;;;;;;;10039673;29;20112;-83
2023/04/20 20:30:58;;;;;;;2.78;2.35;;;;;;;;;;10040483;29;20056;-83
2023/04/20 20:36:03;;;;;;;2.92;2.30;;;;;;;;;;10039938;29;20049;-84
2023/04/20 20:41:06;;;;;;;2.45;1.75;;;;;;;;;;10061290;29;20136;-83
2023/04/20 20:46:11;;;;;;;2.13;1.80;;;;;;;;;;10065675;29;20093;-84
2023/04/20 20:51:16;;;;;;;2.30;1.73;;;;;;;;;;10066606;29;20053;-84
2023/04/20 20:56:20;;;;;;;1.90;1.67;;;;;;;;;;10042889;29;20109;-83
2023/04/20 21:01:24;;;;;;;2.38;2.10;;;;;;;;;;10027915;29;20061;-82
2023/04/20 21:06:28;;;;;;;2.55;2.00;;;;;;;;;;10043928;29;20137;-84
2023/04/20 21:11:31;;;;;;;1.98;1.77;;;;;;;;;;10041184;29;20056;-83
2023/04/20 21:16:36;;;;;;;2.60;2.00;;;;;;;;;;10052747;29;20427;-84
2023/04/20 21:21:39;;;;;;;2.10;1.90;;;;;;;;;;10051121;29;20076;-83
2023/04/20 21:26:43;;;;;;;2.38;2.10;;;;;;;;;;10051922;29;20663;-84
2023/04/20 21:31:47;;;;;;;2.00;1.80;;;;;;;;;;10029846;29;20144;-84
2023/04/20 21:36:51;;;;;;;2.60;2.13;;;;;;;;;;10034277;29;20068;-84
2023/04/20 21:41:54;;;;;;;3.60;2.33;;;;;;;;;;10053273;29;20045;-84
2023/04/20 21:47:01;;;;;;;2.42;2.00;;;;;;;;;;10048295;29;20040;-84
2023/04/20 21:52:04;;;;;;;2.83;2.35;;;;;;;;;;10034719;29;20045;-84
2023/04/20 21:57:10;;;;;;;2.40;1.85;;;;;;;;;;10047683;29;20101;-84
2023/04/20 22:02:14;;;;;;;2.63;2.10;;;;;;;;;;10033548;29;20087;-85
2023/04/20 22:07:18;;;;;;;2.63;2.03;;;;;;;;;;10051375;29;20523;-84
2023/04/20 22:12:24;;;;;;;2.70;2.25;;;;;;;;;;10057237;29;20478;-84
2023/04/20 22:17:36;;;;;;;2.97;2.47;;;;;;;;;;10036487;29;20037;-84
2023/04/20 22:22:40;;;;;;;2.45;2.05;;;;;;;;;;10056116;29;20056;-84
2023/04/20 22:27:43;;;;;;;2.85;2.45;;;;;;;;;;10040789;29;20124;-84
2023/04/20 22:32:48;;;;;;;2.65;2.40;;;;;;;;;;10058918;29;20451;-84
2023/04/20 22:37:51;;;;;;;2.40;2.03;;;;;;;;;;10058681;29;20295;-84
2023/04/20 22:42:54;;;;;;;2.55;2.08;;;;;;;;;;10045102;29;20045;-85
2023/04/20 22:48:00;;;;;;;2.30;2.10;;;;;;;;;;10042795;29;20622;-84
2023/04/20 22:53:03;;;;;;;2.63;2.43;;;;;;;;;;10062148;29;20049;-85
2023/04/20 22:58:07;;;;;;;2.80;2.53;;;;;;;;;;10062696;29;20075;-85
2023/04/20 23:03:11;;;;;;;2.97;2.63;;;;;;;;;;10064524;29;20518;-84
2023/04/20 23:08:16;;;;;;;2.88;2.53;;;;;;;;;;10053037;29;20105;-84
2023/04/20 23:13:20;;;;;;;2.65;2.45;;;;;;;;;;10054184;29;20053;-83
2023/04/20 23:18:25;;;;;;;3.80;3.13;;;;;;;;;;10045409;29;20064;-84
2023/04/20 23:23:28;;;;;;;4.88;3.40;;;;;;;;;;10046801;29;20054;-84
2023/04/20 23:28:32;;;;;;;4.72;4.13;;;;;;;;;;10027344;29;20541;-84
2023/04/20 23:33:36;;;;;;;4.68;4.18;;;;;;;;;;10032370;29;20049;-85
2023/04/20 23:38:40;;;;;;;6.10;4.55;;;;;;;;;;10034905;29;20049;-84
2023/04/20 23:43:44;;;;;;;4.75;3.95;;;;;;;;;;10027816;29;20049;-84
2023/04/20 23:48:50;;;;;;;5.32;4.28;;;;;;;;;;10059036;29;20049;-83
2023/04/20 23:53:53;;;;;;;7.40;4.32;;;;;;;;;;10047428;29;20474;-84
2023/04/20 23:58:58;;;;;;;5.18;4.00;;;;;;;;;;10055743;29;20627;-84
